Time;durP1;ratioP1;P1;durP2;ratioP2;P2;SDS_P1;SDS_P2;PMS_P1;PMS_P2;Temp;Humidity;BMP_temperature;BMP_pressure;BME280_temperature;BME280_humidity;BME280_pressure;Samples;Min_cycle;Max_cycle;Signal;HPM_P1;HPM_P2
2022/08/29 00:00:52;;;;;;;7.20;2.70;;;18.90;70.20;;;;;;5068247;28;20425;-71
2022/08/29 00:03:39;;;;;;;11.00;2.93;;;18.90;69.20;;;;;;5065453;28;21010;-71
2022/08/29 00:06:25;;;;;;;8.43;2.73;;;19.00;68.30;;;;;;5064522;28;20442;-71
2022/08/29 00:09:10;;;;;;;6.97;2.60;;;19.00;66.70;;;;;;5064371;28;20438;-71
2022/08/29 00:11:56;;;;;;;7.03;2.63;;;19.00;67.10;;;;;;5066037;28;20481;-71
2022/08/29 00:14:41;;;;;;;5.97;2.80;;;19.00;66.90;;;;;;5066159;28;20462;-71
2022/08/29 00:17:28;;;;;;;4.80;2.70;;;19.00;67.40;;;;;;5068935;28;21082;-71
2022/08/29 00:20:16;;;;;;;6.53;2.77;;;19.00;66.40;;;;;;5064880;28;20559;-71
2022/08/29 00:23:02;;;;;;;5.60;2.27;;;18.90;64.90;;;;;;5066494;28;20610;-71
2022/08/29 00:25:48;;;;;;;8.87;2.53;;;18.90;67.40;;;;;;5065733;28;20461;-71
2022/08/29 00:28:34;;;;;;;6.20;2.50;;;18.90;67.30;;;;;;5064101;28;20529;-71
2022/08/29 00:31:20;;;;;;;5.27;2.20;;;18.90;67.40;;;;;;5066174;28;20453;-71
2022/08/29 00:34:07;;;;;;;5.53;2.50;;;18.90;67.60;;;;;;5064810;28;20803;-71
2022/08/29 00:36:53;;;;;;;5.50;2.43;;;19.00;66.30;;;;;;5064859;28;20944;-71
2022/08/29 00:39:39;;;;;;;5.03;2.53;;;18.90;68.60;;;;;;5064744;28;20982;-71
2022/08/29 00:42:25;;;;;;;9.30;2.63;;;18.90;68.70;;;;;;5063438;28;20473;-71
2022/08/29 00:45:13;;;;;;;4.23;2.33;;;18.80;69.30;;;;;;5068512;28;21051;-71
2022/08/29 00:48:02;;;;;;;6.90;2.67;;;18.80;69.80;;;;;;5063881;28;20953;-71
2022/08/29 00:50:53;;;;;;;6.67;2.27;;;18.80;68.90;;;;;;5067975;28;21041;-71
2022/08/29 00:53:50;;;;;;;4.37;2.00;;;18.80;68.90;;;;;;5060397;28;20430;-70
2022/08/29 00:56:36;;;;;;;7.47;2.60;;;18.80;67.90;;;;;;5067229;28;20523;-71
2022/08/29 00:59:25;;;;;;;5.77;2.17;;;18.80;66.50;;;;;;5063141;28;20468;-71
2022/08/29 01:02:11;;;;;;;5.00;2.10;;;18.70;66.20;;;;;;5067871;28;20474;-71
2022/08/29 01:04:56;;;;;;;6.30;2.33;;;18.70;66.50;;;;;;5064829;28;21087;-71
2022/08/29 01:07:44;;;;;;;7.00;2.37;;;18.80;65.20;;;;;;5067507;28;20443;-71
2022/08/29 01:13:38;;;;;;;4.63;2.37;;;18.80;66.00;;;;;;5066182;28;20505;-71
2022/08/29 01:16:26;;;;;;;4.60;2.20;;;18.90;65.10;;;;;;5068416;28;20470;-71
2022/08/29 01:19:19;;;;;;;7.93;2.80;;;18.90;65.00;;;;;;5065951;28;21616;-71
2022/08/29 01:22:16;;;;;;;10.73;2.67;;;18.90;64.10;;;;;;5063404;28;20849;-71
2022/08/29 01:25:06;;;;;;;5.20;2.70;;;18.90;64.00;;;;;;5067465;28;20422;-71
2022/08/29 01:27:58;;;;;;;4.60;2.07;;;18.80;64.90;;;;;;5062969;28;20442;-71
2022/08/29 01:31:02;;;;;;;6.83;2.27;;;18.80;65.70;;;;;;5063462;28;20454;-71
2022/08/29 01:33:50;;;;;;;7.00;2.50;;;18.80;65.40;;;;;;5065383;28;20599;-71
2022/08/29 01:36:42;;;;;;;3.33;2.13;;;18.70;66.20;;;;;;5059900;28;20941;-71
2022/08/29 01:39:30;;;;;;;5.70;2.20;;;18.70;69.00;;;;;;5060740;28;20810;-71
2022/08/29 01:42:19;;;;;;;6.73;2.97;;;18.50;67.80;;;;;;5068478;28;20478;-72
2022/08/29 01:45:06;;;;;;;5.27;2.47;;;18.50;68.40;;;;;;5066844;28;20640;-71
2022/08/29 01:47:52;;;;;;;8.53;2.23;;;18.40;69.50;;;;;;5064619;28;21082;-71
2022/08/29 01:50:37;;;;;;;3.53;1.97;;;18.40;68.30;;;;;;5059452;28;20496;-71
2022/08/29 01:53:23;;;;;;;9.10;2.40;;;18.40;69.40;;;;;;5068184;28;20439;-71
2022/08/29 01:56:10;;;;;;;5.90;2.37;;;18.40;71.80;;;;;;5063460;28;20822;-71
2022/08/29 01:59:02;;;;;;;4.00;2.37;;;18.40;71.90;;;;;;5060492;28;20447;-71
2022/08/29 02:01:53;;;;;;;6.07;1.87;;;18.40;68.30;;;;;;5067187;28;20513;-71
2022/08/29 02:04:39;;;;;;;8.00;2.60;;;18.50;70.40;;;;;;5066721;28;20967;-71
2022/08/29 02:07:26;;;;;;;5.40;2.70;;;18.50;70.60;;;;;;5059659;28;20540;-71
2022/08/29 02:10:11;;;;;;;12.30;2.27;;;18.50;71.30;;;;;;5066225;28;20443;-71
2022/08/29 02:12:58;;;;;;;4.60;2.17;;;18.40;72.30;;;;;;5064060;28;20451;-71
2022/08/29 02:15:45;;;;;;;4.70;2.03;;;18.30;72.10;;;;;;5063795;28;20446;-71
2022/08/29 02:18:32;;;;;;;5.67;2.30;;;18.20;73.10;;;;;;5063456;28;20517;-71
2022/08/29 02:21:20;;;;;;;7.57;2.50;;;18.20;72.90;;;;;;5063506;28;20456;-71
2022/08/29 02:24:07;;;;;;;11.37;2.87;;;18.20;73.10;;;;;;5065422;28;20975;-71
2022/08/29 02:26:54;;;;;;;6.40;2.87;;;18.20;73.10;;;;;;5061986;28;20451;-71
2022/08/29 02:29:39;;;;;;;6.07;2.47;;;18.10;72.20;;;;;;5065548;28;20488;-71
2022/08/29 02:32:26;;;;;;;6.60;2.50;;;17.90;72.90;;;;;;5066102;28;20474;-71
2022/08/29 02:35:12;;;;;;;4.70;2.37;;;17.90;74.10;;;;;;5067204;28;20439;-71
2022/08/29 02:37:58;;;;;;;8.80;2.97;;;17.90;74.40;;;;;;5063365;28;20528;-71
2022/08/29 02:40:44;;;;;;;5.70;2.20;;;17.90;74.80;;;;;;5062203;28;20422;-71
2022/08/29 02:43:30;;;;;;;7.53;2.60;;;17.80;75.40;;;;;;5060155;28;20521;-71
2022/08/29 02:46:17;;;;;;;5.87;2.37;;;17.90;78.90;;;;;;5068008;28;20456;-71
2022/08/29 02:49:05;;;;;;;7.43;2.07;;;17.90;76.50;;;;;;5065698;28;20525;-71
2022/08/29 02:51:50;;;;;;;5.83;2.77;;;17.80;77.20;;;;;;5062855;28;20983;-71
2022/08/29 02:54:36;;;;;;;5.73;1.83;;;17.70;77.70;;;;;;5065538;28;21708;-71
2022/08/29 02:57:21;;;;;;;6.27;2.57;;;17.70;77.60;;;;;;5061516;28;20461;-71
2022/08/29 03:00:11;;;;;;;8.80;2.77;;;17.60;78.40;;;;;;5067718;28;20445;-71
2022/08/29 03:02:57;;;;;;;5.70;2.47;;;17.60;79.60;;;;;;5065175;28;21995;-71
2022/08/29 03:05:44;;;;;;;7.20;2.63;;;17.60;80.00;;;;;;5057636;28;20836;-71
2022/08/29 03:08:30;;;;;;;7.70;2.63;;;17.40;81.20;;;;;;5066061;28;20459;-71
2022/08/29 03:11:16;;;;;;;5.17;2.43;;;17.20;81.60;;;;;;5067881;28;20478;-71
2022/08/29 03:14:01;;;;;;;5.50;2.57;;;17.10;83.20;;;;;;5066732;28;21090;-71
2022/08/29 03:16:47;;;;;;;4.80;2.27;;;17.00;84.50;;;;;;5062742;28;20416;-71
2022/08/29 03:19:33;;;;;;;12.70;2.93;;;16.80;87.00;;;;;;5061835;28;20421;-71
2022/08/29 03:22:20;;;;;;;7.00;2.50;;;16.80;90.10;;;;;;5064725;28;20897;-71
2022/08/29 03:25:08;;;;;;;7.00;2.20;;;16.80;90.10;;;;;;5060395;28;20500;-71
2022/08/29 03:27:53;;;;;;;4.10;2.10;;;16.70;90.30;;;;;;5063829;28;20529;-71
2022/08/29 03:30:39;;;;;;;13.30;2.50;;;16.80;90.20;;;;;;5063834;28;21034;-71
2022/08/29 03:33:25;;;;;;;4.97;2.13;;;16.70;90.40;;;;;;5060468;28;20544;-71
2022/08/29 03:36:11;;;;;;;8.00;2.70;;;16.70;90.80;;;;;;5059866;28;20479;-71
2022/08/29 03:38:58;;;;;;;12.43;2.00;;;16.70;90.60;;;;;;5059722;28;20533;-71
2022/08/29 03:41:44;;;;;;;6.60;2.20;;;16.60;91.10;;;;;;5059825;28;20558;-71
2022/08/29 03:44:32;;;;;;;6.70;2.37;;;16.70;91.70;;;;;;5058665;28;20947;-71
2022/08/29 03:47:17;;;;;;;7.03;2.50;;;16.70;91.10;;;;;;5064616;28;20413;-71
2022/08/29 03:50:04;;;;;;;9.63;3.10;;;16.80;91.10;;;;;;5061740;28;20792;-71
2022/08/29 03:52:50;;;;;;;6.63;2.90;;;16.70;91.10;;;;;;5065261;28;20448;-71
2022/08/29 03:55:37;;;;;;;4.30;2.50;;;16.60;91.20;;;;;;5054530;28;20454;-71
2022/08/29 03:58:23;;;;;;;8.23;2.10;;;16.70;91.20;;;;;;5062891;28;20462;-71
2022/08/29 04:01:09;;;;;;;9.47;2.30;;;16.60;91.60;;;;;;5058320;28;20470;-71
2022/08/29 04:03:56;;;;;;;6.50;2.67;;;16.50;91.60;;;;;;5065605;28;20605;-71
2022/08/29 04:06:42;;;;;;;4.70;2.50;;;16.50;91.90;;;;;;5056411;28;20417;-71
2022/08/29 04:09:28;;;;;;;5.87;2.63;;;16.40;92.30;;;;;;5062588;28;20493;-71
2022/08/29 04:12:16;;;;;;;4.77;2.57;;;16.40;93.10;;;;;;5063455;28;20474;-71
2022/08/29 04:15:01;;;;;;;5.23;2.03;;;16.30;93.80;;;;;;5060010;28;20534;-71
2022/08/29 04:17:47;;;;;;;3.30;2.07;;;16.30;93.90;;;;;;5063201;28;20515;-71
2022/08/29 04:20:36;;;;;;;6.17;2.13;;;16.40;94.40;;;;;;5059384;28;20455;-71
2022/08/29 04:23:22;;;;;;;3.53;1.97;;;16.50;94.60;;;;;;5066791;28;20521;-71
2022/08/29 04:26:13;;;;;;;4.47;2.47;;;16.50;94.70;;;;;;5060911;28;20907;-71
2022/08/29 04:29:01;;;;;;;5.73;2.50;;;16.50;94.60;;;;;;5065761;28;20447;-71
2022/08/29 04:31:47;;;;;;;8.57;2.67;;;16.40;94.60;;;;;;5060995;28;20595;-71
2022/08/29 04:34:33;;;;;;;4.10;2.57;;;16.40;94.70;;;;;;5064671;28;20474;-71
2022/08/29 04:37:18;;;;;;;3.90;2.10;;;16.30;94.90;;;;;;5066295;28;20589;-71
2022/08/29 04:40:05;;;;;;;4.83;2.57;;;16.40;94.90;;;;;;5063371;28;20468;-71
2022/08/29 04:42:51;;;;;;;6.60;2.50;;;16.40;94.80;;;;;;5065189;28;20469;-71
2022/08/29 04:45:39;;;;;;;5.03;2.37;;;16.30;95.20;;;;;;5062145;28;20451;-71
2022/08/29 04:48:24;;;;;;;4.23;2.10;;;16.10;96.40;;;;;;5069463;28;20443;-71
2022/08/29 04:51:10;;;;;;;5.37;2.50;;;16.00;96.50;;;;;;5065420;28;20457;-71
2022/08/29 04:53:56;;;;;;;6.70;2.80;;;16.10;96.30;;;;;;5061788;28;20812;-71
2022/08/29 04:56:42;;;;;;;5.37;2.40;;;16.00;96.30;;;;;;5068493;28;20870;-70
2022/08/29 04:59:28;;;;;;;6.67;2.70;;;16.10;96.60;;;;;;5069650;28;20808;-71
2022/08/29 05:02:15;;;;;;;4.20;2.10;;;16.20;96.40;;;;;;5060026;28;20605;-71
2022/08/29 05:05:01;;;;;;;5.27;2.40;;;16.20;96.20;;;;;;5066041;28;20409;-71
2022/08/29 05:07:47;;;;;;;8.20;2.40;;;16.30;96.50;;;;;;5068656;28;20513;-71
2022/08/29 05:10:33;;;;;;;7.10;2.17;;;16.40;96.10;;;;;;5062431;28;20421;-70
2022/08/29 05:13:19;;;;;;;6.60;3.07;;;16.50;95.90;;;;;;5085614;22;20502;-71
2022/08/29 05:16:05;;;;;;;7.87;2.40;;;16.40;95.50;;;;;;5060692;28;20521;-71
2022/08/29 05:18:52;;;;;;;8.17;2.70;;;16.40;95.20;;;;;;5065475;28;20416;-70
2022/08/29 05:21:39;;;;;;;10.23;3.20;;;16.40;95.10;;;;;;5061053;28;20459;-71
2022/08/29 05:24:25;;;;;;;11.07;2.73;;;16.50;95.70;;;;;;5062917;28;20458;-70
2022/08/29 05:27:14;;;;;;;6.97;2.90;;;16.60;95.30;;;;;;5065263;28;20606;-70
2022/08/29 05:30:00;;;;;;;5.07;2.07;;;16.60;93.50;;;;;;5064767;28;20964;-71
2022/08/29 05:32:46;;;;;;;3.73;2.27;;;16.70;94.40;;;;;;5067118;28;20493;-70
2022/08/29 05:35:33;;;;;;;7.07;2.20;;;16.70;95.10;;;;;;5064693;28;20450;-71
2022/08/29 05:38:18;;;;;;;5.60;2.43;;;16.90;93.50;;;;;;5067980;28;20409;-70
2022/08/29 05:41:05;;;;;;;7.30;3.10;;;17.00;92.70;;;;;;5066955;28;20450;-71
2022/08/29 05:43:52;;;;;;;8.40;2.93;;;17.00;91.80;;;;;;5063791;28;20457;-70
2022/08/29 05:46:38;;;;;;;4.57;2.23;;;17.20;92.20;;;;;;5066812;28;20934;-70
2022/08/29 05:49:24;;;;;;;5.83;2.10;;;17.30;90.60;;;;;;5059913;28;20503;-70
2022/08/29 05:52:13;;;;;;;8.73;2.70;;;17.40;90.20;;;;;;5059354;28;20495;-70
2022/08/29 05:55:00;;;;;;;7.63;2.57;;;17.50;90.10;;;;;;5059117;28;20469;-70
2022/08/29 05:57:48;;;;;;;7.97;2.20;;;17.70;87.80;;;;;;5062575;28;20427;-71
2022/08/29 06:00:34;;;;;;;4.43;2.57;;;17.70;88.00;;;;;;5067723;28;20772;-71
2022/08/29 06:03:20;;;;;;;17.87;3.20;;;17.80;87.40;;;;;;5053508;28;20888;-71
2022/08/29 06:06:06;;;;;;;5.03;2.53;;;17.90;83.90;;;;;;5062334;28;20470;-71
2022/08/29 06:08:54;;;;;;;11.67;2.60;;;18.00;81.80;;;;;;5062963;28;20458;-71
2022/08/29 06:11:40;;;;;;;5.47;3.00;;;18.10;81.60;;;;;;5069217;28;20465;-70
2022/08/29 06:14:25;;;;;;;9.50;3.17;;;18.20;80.20;;;;;;5060249;28;20438;-70
2022/08/29 06:17:12;;;;;;;4.17;2.23;;;18.30;77.90;;;;;;5054513;28;20424;-71
2022/08/29 06:19:57;;;;;;;7.13;2.13;;;18.40;79.00;;;;;;5067233;28;20423;-71
2022/08/29 06:22:43;;;;;;;8.53;2.77;;;18.40;78.10;;;;;;5055344;28;20454;-72
2022/08/29 06:25:30;;;;;;;7.13;2.27;;;18.50;75.50;;;;;;5060076;28;20431;-71
2022/08/29 06:28:16;;;;;;;6.27;2.63;;;18.60;75.50;;;;;;5062157;28;20497;-71
2022/08/29 06:31:06;;;;;;;9.00;2.80;;;18.70;73.50;;;;;;5058524;28;20435;-71
2022/08/29 06:33:54;;;;;;;5.23;2.90;;;18.70;73.80;;;;;;5060909;28;20446;-70
2022/08/29 06:36:40;;;;;;;9.33;3.13;;;18.80;73.60;;;;;;5059244;28;20431;-70
2022/08/29 06:39:26;;;;;;;19.80;2.17;;;18.90;73.50;;;;;;5062302;28;20446;-71
2022/08/29 06:42:12;;;;;;;8.60;2.70;;;19.00;73.40;;;;;;5058150;28;20458;-72
2022/08/29 06:44:58;;;;;;;8.87;2.87;;;19.20;72.50;;;;;;5061719;28;20490;-71
2022/08/29 06:47:46;;;;;;;5.47;2.27;;;19.20;69.90;;;;;;5065852;28;20457;-71
2022/08/29 06:50:31;;;;;;;7.67;3.20;;;19.20;70.20;;;;;;5063261;28;20500;-71
2022/08/29 06:53:17;;;;;;;6.20;2.20;;;19.30;70.20;;;;;;5063557;28;20922;-70
2022/08/29 06:56:06;;;;;;;6.33;2.20;;;19.40;69.70;;;;;;5060182;28;20530;-70
2022/08/29 06:58:53;;;;;;;8.10;3.03;;;19.40;68.60;;;;;;5066928;28;20422;-70
2022/08/29 07:01:40;;;;;;;6.13;2.40;;;19.50;67.20;;;;;;5061918;28;20954;-71
2022/08/29 07:04:26;;;;;;;10.30;2.80;;;19.60;68.10;;;;;;5065626;28;20505;-71
2022/08/29 07:07:12;;;;;;;7.07;3.00;;;19.60;67.20;;;;;;5060716;28;20443;-70
2022/08/29 07:09:58;;;;;;;4.97;2.33;;;19.70;65.80;;;;;;5054671;28;20432;-71
2022/08/29 07:12:43;;;;;;;6.80;2.67;;;19.80;65.10;;;;;;5056484;28;20942;-71
2022/08/29 07:15:31;;;;;;;8.40;2.90;;;19.90;64.80;;;;;;5062907;28;20466;-71
2022/08/29 07:18:16;;;;;;;7.40;2.53;;;20.00;63.60;;;;;;5051668;28;20424;-71
2022/08/29 07:21:06;;;;;;;6.73;2.40;;;20.10;61.60;;;;;;5060423;28;20427;-71
2022/08/29 07:23:53;;;;;;;11.43;3.27;;;20.20;62.20;;;;;;5058502;28;20475;-71
2022/08/29 07:26:42;;;;;;;10.00;2.90;;;20.20;61.80;;;;;;5061076;28;20935;-71
2022/08/29 07:29:28;;;;;;;4.83;2.43;;;20.30;62.50;;;;;;5059159;28;20513;-70
2022/08/29 07:32:14;;;;;;;9.37;2.90;;;20.40;61.50;;;;;;5059309;28;20765;-71
2022/08/29 07:35:00;;;;;;;10.47;2.40;;;20.40;61.00;;;;;;5064074;28;20487;-71
2022/08/29 07:37:46;;;;;;;9.50;2.83;;;20.50;60.50;;;;;;5066654;28;20418;-71
2022/08/29 07:40:32;;;;;;;4.73;2.50;;;20.50;59.90;;;;;;5060801;28;20423;-71
2022/08/29 07:43:17;;;;;;;5.20;2.67;;;20.70;58.60;;;;;;5057939;28;20449;-71
2022/08/29 07:46:06;;;;;;;5.90;3.07;;;20.70;59.00;;;;;;5060675;28;20470;-71
2022/08/29 07:48:54;;;;;;;6.00;2.80;;;20.80;57.10;;;;;;5057124;28;20426;-71
2022/08/29 07:51:40;;;;;;;5.17;2.30;;;20.90;58.40;;;;;;5059471;28;20528;-70
2022/08/29 07:54:26;;;;;;;6.63;3.10;;;21.00;56.40;;;;;;5054333;28;20431;-70
2022/08/29 07:57:11;;;;;;;7.33;2.63;;;21.10;56.60;;;;;;5063973;28;20484;-71
2022/08/29 07:59:57;;;;;;;7.23;3.23;;;21.10;55.00;;;;;;5066184;28;20431;-70
2022/08/29 08:02:43;;;;;;;5.40;2.73;;;21.10;54.90;;;;;;5063466;28;20441;-71
2022/08/29 08:05:29;;;;;;;5.20;2.43;;;21.20;59.50;;;;;;5063645;28;20423;-72
2022/08/29 08:08:15;;;;;;;6.17;2.70;;;21.20;56.80;;;;;;5057932;28;20823;-70
2022/08/29 08:11:03;;;;;;;6.33;2.87;;;21.20;58.20;;;;;;5064572;28;20769;-71
2022/08/29 08:13:49;;;;;;;8.70;3.33;;;21.30;58.10;;;;;;5062285;28;20805;-71
2022/08/29 08:16:35;;;;;;;9.93;3.40;;;21.40;59.10;;;;;;5058623;28;20431;-71
2022/08/29 08:19:20;;;;;;;7.07;3.63;;;21.50;57.10;;;;;;5057952;28;20776;-70
2022/08/29 08:22:08;;;;;;;7.37;3.40;;;21.40;53.20;;;;;;5064157;28;20458;-70
2022/08/29 08:24:54;;;;;;;6.23;3.07;;;21.40;54.90;;;;;;5063571;28;20458;-70
2022/08/29 08:27:39;;;;;;;5.07;3.10;;;21.60;56.90;;;;;;5058355;28;20439;-71
2022/08/29 08:30:25;;;;;;;6.47;2.70;;;21.60;54.40;;;;;;5064554;28;20957;-71
2022/08/29 08:33:11;;;;;;;4.73;2.60;;;21.70;55.10;;;;;;5065249;28;20867;-71
2022/08/29 08:35:57;;;;;;;6.73;2.90;;;21.70;56.60;;;;;;5064594;28;20541;-70
2022/08/29 08:38:44;;;;;;;7.53;3.07;;;21.80;56.40;;;;;;5056991;28;20569;-71
2022/08/29 08:41:42;;;;;;;5.87;2.70;;;21.90;56.70;;;;;;5062006;28;20454;-71
2022/08/29 08:44:51;;;;;;;6.07;2.70;;;22.00;54.00;;;;;;5060722;28;20491;-71
2022/08/29 08:47:41;;;;;;;6.00;2.67;;;22.10;53.50;;;;;;5061511;28;20568;-71
2022/08/29 08:50:37;;;;;;;8.10;3.57;;;22.30;54.40;;;;;;5061691;28;20808;-71
2022/08/29 08:53:31;;;;;;;8.17;3.00;;;22.40;52.30;;;;;;5063988;28;20463;-71
2022/08/29 08:56:26;;;;;;;6.30;2.83;;;22.50;52.30;;;;;;5055990;28;20944;-71
2022/08/29 08:59:18;;;;;;;6.07;3.27;;;22.60;52.20;;;;;;5059609;28;21002;-71
2022/08/29 09:02:13;;;;;;;6.83;2.90;;;22.70;52.00;;;;;;5061935;28;20463;-72
2022/08/29 09:05:06;;;;;;;5.40;3.00;;;22.80;50.40;;;;;;5068406;28;20991;-71
2022/08/29 09:08:01;;;;;;;15.47;3.30;;;22.80;50.10;;;;;;5066876;28;20573;-71
2022/08/29 09:10:54;;;;;;;8.13;2.57;;;22.80;47.90;;;;;;5061708;28;20431;-73
2022/08/29 09:13:50;;;;;;;9.20;3.23;;;22.80;50.00;;;;;;5064102;28;20465;-72
2022/08/29 09:16:42;;;;;;;6.33;3.17;;;22.90;51.30;;;;;;5065088;28;20528;-71
2022/08/29 09:19:27;;;;;;;8.37;3.07;;;23.00;48.50;;;;;;5062045;28;20487;-71
2022/08/29 09:22:19;;;;;;;9.07;3.30;;;23.00;45.70;;;;;;5060511;28;20466;-72
2022/08/29 09:25:08;;;;;;;6.20;3.03;;;23.10;46.90;;;;;;5068644;28;20474;-71
2022/08/29 09:27:53;;;;;;;6.10;3.00;;;23.20;49.50;;;;;;5060526;28;20446;-72
2022/08/29 09:30:42;;;;;;;7.07;2.70;;;23.30;50.00;;;;;;5059110;28;20430;-71
2022/08/29 09:33:40;;;;;;;7.00;3.07;;;23.40;49.10;;;;;;5064257;28;20454;-71
2022/08/29 09:36:51;;;;;;;6.83;2.70;;;23.50;47.60;;;;;;5059782;28;20423;-71
2022/08/29 09:39:36;;;;;;;8.50;2.80;;;23.60;47.30;;;;;;5059153;28;20454;-71
2022/08/29 09:42:23;;;;;;;7.53;3.57;;;23.60;46.70;;;;;;5064520;28;20443;-72
2022/08/29 09:45:18;;;;;;;6.63;3.53;;;23.70;43.50;;;;;;5058176;28;20437;-71
2022/08/29 09:48:14;;;;;;;7.93;3.37;;;23.60;46.90;;;;;;5060401;28;20536;-71
2022/08/29 09:51:11;;;;;;;11.70;2.80;;;23.70;44.40;;;;;;5061252;28;20641;-71
2022/08/29 09:54:12;;;;;;;5.57;3.07;;;23.50;44.60;;;;;;5065316;28;20986;-71
2022/08/29 09:57:03;;;;;;;12.90;3.40;;;23.50;46.00;;;;;;5066698;28;20807;-71
2022/08/29 09:59:50;;;;;;;6.97;3.10;;;23.70;45.80;;;;;;5055954;28;20940;-71
2022/08/29 10:02:45;;;;;;;7.03;2.90;;;23.70;43.50;;;;;;5060758;28;20467;-71
2022/08/29 10:05:41;;;;;;;8.43;3.10;;;23.80;45.80;;;;;;5059215;28;20843;-71
2022/08/29 10:08:33;;;;;;;6.67;3.10;;;23.90;43.10;;;;;;5057688;28;20512;-71
2022/08/29 10:11:24;;;;;;;7.00;3.30;;;24.00;43.00;;;;;;5059119;28;20955;-71
2022/08/29 10:14:15;;;;;;;8.10;3.30;;;24.00;43.80;;;;;;5066630;28;20435;-70
2022/08/29 10:20:05;;;;;;;6.73;3.33;;;24.10;40.80;;;;;;5061772;28;20415;-70
2022/08/29 10:22:58;;;;;;;7.07;2.77;;;24.30;38.30;;;;;;5063033;28;20450;-71
2022/08/29 10:25:44;;;;;;;4.60;2.73;;;24.40;38.60;;;;;;5061714;28;21129;-70
2022/08/29 10:28:38;;;;;;;8.97;2.73;;;24.60;39.40;;;;;;5057324;28;20447;-70
2022/08/29 10:31:33;;;;;;;4.80;2.63;;;24.70;37.50;;;;;;5064982;28;20451;-72
2022/08/29 10:34:38;;;;;;;4.53;2.67;;;24.80;36.70;;;;;;5056211;28;20416;-72
2022/08/29 10:37:33;;;;;;;8.00;3.00;;;25.00;35.60;;;;;;5058107;28;20573;-71
2022/08/29 10:40:26;;;;;;;11.23;2.70;;;25.00;33.80;;;;;;5064244;28;20998;-70
2022/08/29 10:43:33;;;;;;;6.00;2.90;;;25.10;35.00;;;;;;5057529;28;20435;-71
2022/08/29 10:46:53;;;;;;;4.27;2.80;;;25.20;32.80;;;;;;5060106;28;20475;-70
2022/08/29 10:49:58;;;;;;;5.73;2.70;;;25.30;32.00;;;;;;5061215;28;20474;-70
2022/08/29 10:52:52;;;;;;;11.30;2.60;;;25.40;30.90;;;;;;5058802;28;20470;-70
2022/08/29 10:55:49;;;;;;;6.97;3.17;;;25.50;29.90;;;;;;5066517;28;20955;-70
2022/08/29 10:58:49;;;;;;;5.97;2.87;;;25.50;30.90;;;;;;5063196;28;20446;-70
2022/08/29 11:01:39;;;;;;;9.13;2.60;;;25.60;31.80;;;;;;5066018;28;20828;-71
2022/08/29 11:04:33;;;;;;;5.27;2.63;;;25.60;29.70;;;;;;5063055;28;20479;-70
2022/08/29 11:07:22;;;;;;;4.50;2.50;;;25.70;29.60;;;;;;5058283;28;20803;-71
2022/08/29 11:10:13;;;;;;;8.20;2.93;;;25.70;31.20;;;;;;5063293;28;20447;-72
2022/08/29 11:13:07;;;;;;;15.33;3.43;;;25.80;30.20;;;;;;5085057;22;20501;-76
2022/08/29 11:16:02;;;;;;;5.77;2.80;;;25.90;28.70;;;;;;5060444;28;20525;-76
2022/08/29 11:18:51;;;;;;;4.07;2.13;;;26.10;27.80;;;;;;5069340;28;20610;-76
2022/08/29 11:21:41;;;;;;;7.30;2.80;;;26.10;28.00;;;;;;5068852;28;20477;-76
2022/08/29 11:24:30;;;;;;;5.00;2.80;;;26.20;27.50;;;;;;5071306;28;20600;-76
2022/08/29 11:27:26;;;;;;;7.00;2.40;;;26.30;28.70;;;;;;5066536;28;20449;-76
2022/08/29 11:30:20;;;;;;;10.10;3.40;;;26.50;26.80;;;;;;5072504;28;20950;-76
2022/08/29 11:33:17;;;;;;;8.03;2.83;;;26.60;27.70;;;;;;5078020;28;20484;-76
2022/08/29 11:36:28;;;;;;;7.70;2.80;;;26.60;26.10;;;;;;5071675;28;20513;-75
2022/08/29 11:39:47;;;;;;;5.40;2.50;;;26.70;25.90;;;;;;5073571;28;20809;-76
2022/08/29 11:42:37;;;;;;;5.20;3.00;;;26.70;26.90;;;;;;5040793;28;20474;-76
2022/08/29 11:45:29;;;;;;;8.70;3.20;;;26.80;26.80;;;;;;5076990;28;20823;-76
2022/08/29 11:48:28;;;;;;;8.23;3.30;;;27.00;25.70;;;;;;5069243;28;20459;-76
2022/08/29 11:51:30;;;;;;;6.67;2.90;;;27.10;24.50;;;;;;5072715;28;20648;-76
2022/08/29 11:54:52;;;;;;;7.20;2.60;;;27.10;24.90;;;;;;5071618;28;20461;-76
2022/08/29 11:57:46;;;;;;;5.40;2.50;;;27.10;25.00;;;;;;5072646;28;21013;-76
2022/08/29 12:00:46;;;;;;;4.30;2.30;;;27.20;25.00;;;;;;5072317;28;20442;-76
2022/08/29 12:03:54;;;;;;;4.57;2.40;;;27.20;25.00;;;;;;5078973;28;20470;-76
2022/08/29 12:06:57;;;;;;;5.17;2.80;;;27.30;23.80;;;;;;5060442;28;20446;-76
2022/08/29 12:09:47;;;;;;;4.33;2.53;;;27.30;26.00;;;;;;5069303;28;20512;-76
2022/08/29 12:12:44;;;;;;;4.57;2.67;;;27.50;24.30;;;;;;5068925;28;20620;-76
2022/08/29 12:15:53;;;;;;;6.10;2.80;;;27.60;24.00;;;;;;5074610;28;20508;-76
2022/08/29 12:18:49;;;;;;;5.93;2.63;;;27.80;23.00;;;;;;5069146;28;20449;-76
2022/08/29 12:21:45;;;;;;;7.50;3.40;;;27.80;22.80;;;;;;5074252;28;20917;-76
2022/08/29 12:24:39;;;;;;;5.33;2.60;;;27.90;22.50;;;;;;5072153;28;20466;-76
2022/08/29 12:27:40;;;;;;;4.53;2.97;;;28.00;23.10;;;;;;5070558;28;20446;-76
2022/08/29 12:30:27;;;;;;;4.70;2.60;;;28.10;23.30;;;;;;5072376;28;20806;-76
2022/08/29 12:33:26;;;;;;;5.80;3.20;;;28.20;21.70;;;;;;5073906;28;20963;-76
2022/08/29 12:36:25;;;;;;;4.13;2.53;;;28.30;21.90;;;;;;5068333;28;20585;-76
2022/08/29 12:39:19;;;;;;;3.97;2.73;;;28.40;22.60;;;;;;5074276;28;20454;-76
2022/08/29 12:42:24;;;;;;;4.10;2.20;;;28.40;21.30;;;;;;5071541;28;20833;-76
2022/08/29 12:45:13;;;;;;;5.53;2.83;;;28.20;20.50;;;;;;5070850;28;20477;-76
2022/08/29 12:48:05;;;;;;;5.50;3.57;;;28.20;21.00;;;;;;5075863;28;20592;-75
2022/08/29 12:50:52;;;;;;;12.63;3.20;;;28.10;21.00;;;;;;5065680;28;20436;-76
2022/08/29 12:53:40;;;;;;;5.77;3.50;;;28.00;20.90;;;;;;5071862;28;20540;-75
2022/08/29 12:56:25;;;;;;;7.00;2.80;;;28.10;20.40;;;;;;5066476;28;20951;-76
2022/08/29 12:59:18;;;;;;;3.93;2.10;;;28.00;20.60;;;;;;5065969;28;21087;-76
2022/08/29 13:02:05;;;;;;;3.73;2.47;;;28.10;21.00;;;;;;5067517;28;20486;-76
2022/08/29 13:04:51;;;;;;;5.37;2.97;;;28.30;21.10;;;;;;5075030;28;20821;-76
2022/08/29 13:07:37;;;;;;;6.93;3.27;;;28.60;20.60;;;;;;5065511;28;20959;-76
2022/08/29 13:10:24;;;;;;;4.30;2.57;;;28.70;19.90;;;;;;5074680;28;20454;-76
2022/08/29 13:13:14;;;;;;;4.73;2.33;;;28.90;21.50;;;;;;5067111;28;20572;-76
2022/08/29 13:16:03;;;;;;;5.13;2.97;;;29.10;19.80;;;;;;5066225;28;20827;-74
2022/08/29 13:18:48;;;;;;;4.07;2.40;;;29.10;20.00;;;;;;5068914;28;20799;-74
2022/08/29 13:21:34;;;;;;;7.33;3.17;;;29.40;19.20;;;;;;5064546;28;20462;-74
2022/08/29 13:24:20;;;;;;;3.50;2.30;;;29.50;19.10;;;;;;5064918;28;20450;-73
2022/08/29 13:27:09;;;;;;;5.57;3.30;;;29.70;19.80;;;;;;5067459;28;20581;-74
2022/08/29 13:30:00;;;;;;;4.40;2.70;;;29.80;20.30;;;;;;5066756;28;20447;-73
2022/08/29 13:32:48;;;;;;;5.40;3.20;;;30.00;19.80;;;;;;5064779;28;20474;-74
2022/08/29 13:35:35;;;;;;;5.43;2.97;;;30.20;18.60;;;;;;5063695;28;20585;-75
2022/08/29 13:38:23;;;;;;;6.67;3.50;;;30.40;18.00;;;;;;5068171;28;20438;-75
2022/08/29 13:41:08;;;;;;;8.50;3.10;;;30.40;17.50;;;;;;5068866;28;20454;-75
2022/08/29 13:43:56;;;;;;;8.80;3.67;;;30.10;18.10;;;;;;5066136;28;20441;-75
2022/08/29 13:46:45;;;;;;;6.37;3.13;;;30.10;18.30;;;;;;5066138;28;20657;-75
2022/08/29 13:49:33;;;;;;;5.70;3.30;;;30.40;18.60;;;;;;5067854;28;20451;-75
2022/08/29 13:52:20;;;;;;;5.80;2.87;;;30.60;18.20;;;;;;5061927;28;20456;-76
2022/08/29 13:55:08;;;;;;;8.73;4.13;;;30.80;17.60;;;;;;5063228;28;20473;-75
2022/08/29 13:57:55;;;;;;;8.30;3.40;;;30.90;17.60;;;;;;5069679;28;20967;-75
2022/08/29 14:00:42;;;;;;;4.97;3.07;;;31.00;17.30;;;;;;5066984;28;20518;-75
2022/08/29 14:03:29;;;;;;;5.27;3.00;;;31.10;18.10;;;;;;5057500;28;20541;-76
2022/08/29 14:06:15;;;;;;;5.53;2.93;;;31.10;17.30;;;;;;5071881;28;21039;-76
2022/08/29 14:09:02;;;;;;;7.73;3.20;;;31.00;17.90;;;;;;5063768;28;20447;-76
2022/08/29 14:11:48;;;;;;;7.90;3.30;;;31.10;18.60;;;;;;5064985;28;20464;-75
2022/08/29 14:14:34;;;;;;;4.63;2.90;;;31.10;17.60;;;;;;5063871;28;20536;-76
2022/08/29 14:17:22;;;;;;;11.83;2.60;;;31.00;17.20;;;;;;5055812;28;20812;-75
2022/08/29 14:20:09;;;;;;;3.47;2.33;;;31.00;17.80;;;;;;5066085;28;20529;-76
2022/08/29 14:22:55;;;;;;;4.00;2.90;;;30.90;17.30;;;;;;5067840;28;20500;-76
2022/08/29 14:25:41;;;;;;;4.80;2.77;;;30.90;17.90;;;;;;5055547;28;20458;-76
2022/08/29 14:28:26;;;;;;;5.53;2.97;;;30.90;17.60;;;;;;5066239;28;20438;-75
2022/08/29 14:31:12;;;;;;;5.00;2.60;;;30.90;17.40;;;;;;5063085;28;20482;-76
2022/08/29 14:33:59;;;;;;;6.70;2.93;;;31.00;17.50;;;;;;5062704;28;20498;-76
2022/08/29 14:36:45;;;;;;;4.97;2.70;;;31.00;17.50;;;;;;5062049;28;20587;-75
2022/08/29 14:39:30;;;;;;;5.83;3.10;;;31.10;17.40;;;;;;5066976;28;20453;-75
2022/08/29 14:42:16;;;;;;;4.30;2.50;;;31.00;17.60;;;;;;5067797;28;20455;-75
2022/08/29 14:45:02;;;;;;;6.00;3.10;;;31.10;17.60;;;;;;5061655;28;20474;-76